sensor_id;sensor_type;location;lat;lon;timestamp;temperature;humidity
62581;DHT22;48640;48.770;9.148;2023-03-03T00:01:57;4.40;92.20
62581;DHT22;48640;48.770;9.148;2023-03-03T00:04:24;4.30;92.60
62581;DHT22;48640;48.770;9.148;2023-03-03T00:06:51;4.20;92.90
62581;DHT22;48640;48.770;9.148;2023-03-03T00:09:18;4.30;93.00
62581;DHT22;48640;48.770;9.148;2023-03-03T00:11:45;4.20;92.90
62581;DHT22;48640;48.770;9.148;2023-03-03T00:14:21;4.10;93.00
62581;DHT22;48640;48.770;9.148;2023-03-03T00:16:49;4.00;93.30
62581;DHT22;48640;48.770;9.148;2023-03-03T00:19:18;4.00;93.40
62581;DHT22;48640;48.770;9.148;2023-03-03T00:21:46;3.90;93.50
62581;DHT22;48640;48.770;9.148;2023-03-03T00:24:17;4.00;93.40
62581;DHT22;48640;48.770;9.148;2023-03-03T00:26:44;3.90;93.40
62581;DHT22;48640;48.770;9.148;2023-03-03T00:29:30;3.90;93.50
62581;DHT22;48640;48.770;9.148;2023-03-03T00:32:12;3.90;93.60
62581;DHT22;48640;48.770;9.148;2023-03-03T00:34:42;3.90;93.60
62581;DHT22;48640;48.770;9.148;2023-03-03T00:37:22;3.80;93.70
62581;DHT22;48640;48.770;9.148;2023-03-03T00:39:50;3.70;93.90
62581;DHT22;48640;48.770;9.148;2023-03-03T00:42:18;3.90;94.00
62581;DHT22;48640;48.770;9.148;2023-03-03T00:44:47;3.80;93.90
62581;DHT22;48640;48.770;9.148;2023-03-03T00:47:29;3.70;93.90
62581;DHT22;48640;48.770;9.148;2023-03-03T00:50:24;3.70;94.00
62581;DHT22;48640;48.770;9.148;2023-03-03T00:52:58;3.70;94.10
62581;DHT22;48640;48.770;9.148;2023-03-03T00:55:26;3.60;94.20
62581;DHT22;48640;48.770;9.148;2023-03-03T00:57:53;3.60;94.20
62581;DHT22;48640;48.770;9.148;2023-03-03T01:00:21;3.50;94.30
62581;DHT22;48640;48.770;9.148;2023-03-03T01:02:48;3.50;94.40
62581;DHT22;48640;48.770;9.148;2023-03-03T01:05:16;3.50;94.50
62581;DHT22;48640;48.770;9.148;2023-03-03T01:07:43;3.40;94.70
62581;DHT22;48640;48.770;9.148;2023-03-03T01:10:10;3.30;95.00
62581;DHT22;48640;48.770;9.148;2023-03-03T01:12:37;3.40;95.00
62581;DHT22;48640;48.770;9.148;2023-03-03T01:15:06;3.40;95.10
62581;DHT22;48640;48.770;9.148;2023-03-03T01:17:35;3.50;94.90
62581;DHT22;48640;48.770;9.148;2023-03-03T01:20:03;3.40;94.80
62581;DHT22;48640;48.770;9.148;2023-03-03T01:22:30;3.40;94.80
62581;DHT22;48640;48.770;9.148;2023-03-03T01:24:57;3.30;94.80
62581;DHT22;48640;48.770;9.148;2023-03-03T01:27:23;3.30;95.00
62581;DHT22;48640;48.770;9.148;2023-03-03T01:29:52;3.30;94.90
62581;DHT22;48640;48.770;9.148;2023-03-03T01:32:20;3.20;95.10
62581;DHT22;48640;48.770;9.148;2023-03-03T01:34:49;3.20;95.20
62581;DHT22;48640;48.770;9.148;2023-03-03T01:37:15;3.20;95.40
62581;DHT22;48640;48.770;9.148;2023-03-03T01:39:47;3.30;95.40
62581;DHT22;48640;48.770;9.148;2023-03-03T01:42:14;3.30;95.20
62581;DHT22;48640;48.770;9.148;2023-03-03T01:44:41;3.30;95.10
62581;DHT22;48640;48.770;9.148;2023-03-03T01:47:10;3.30;95.00
62581;DHT22;48640;48.770;9.148;2023-03-03T01:49:40;3.20;94.90
62581;DHT22;48640;48.770;9.148;2023-03-03T01:52:14;3.30;95.00
62581;DHT22;48640;48.770;9.148;2023-03-03T01:54:48;3.20;94.90
62581;DHT22;48640;48.770;9.148;2023-03-03T01:57:21;3.20;95.10
62581;DHT22;48640;48.770;9.148;2023-03-03T01:59:50;3.10;95.50
62581;DHT22;48640;48.770;9.148;2023-03-03T02:02:19;3.10;95.50
62581;DHT22;48640;48.770;9.148;2023-03-03T02:04:46;3.10;95.30
62581;DHT22;48640;48.770;9.148;2023-03-03T02:07:15;3.20;95.40
62581;DHT22;48640;48.770;9.148;2023-03-03T02:09:49;3.20;95.30
62581;DHT22;48640;48.770;9.148;2023-03-03T02:12:19;3.20;95.30
62581;DHT22;48640;48.770;9.148;2023-03-03T02:14:48;3.20;95.00
62581;DHT22;48640;48.770;9.148;2023-03-03T02:17:16;3.10;95.00
62581;DHT22;48640;48.770;9.148;2023-03-03T02:19:49;3.00;95.20
62581;DHT22;48640;48.770;9.148;2023-03-03T02:22:22;3.10;95.40
62581;DHT22;48640;48.770;9.148;2023-03-03T02:24:54;3.10;95.40
62581;DHT22;48640;48.770;9.148;2023-03-03T02:27:25;3.10;95.30
62581;DHT22;48640;48.770;9.148;2023-03-03T02:29:52;3.10;95.30
62581;DHT22;48640;48.770;9.148;2023-03-03T02:32:19;3.10;95.10
62581;DHT22;48640;48.770;9.148;2023-03-03T02:34:49;3.10;95.20
62581;DHT22;48640;48.770;9.148;2023-03-03T02:37:17;3.00;95.60
62581;DHT22;48640;48.770;9.148;2023-03-03T02:39:44;3.10;95.40
62581;DHT22;48640;48.770;9.148;2023-03-03T02:42:15;3.10;95.10
62581;DHT22;48640;48.770;9.148;2023-03-03T02:44:45;3.10;95.10
62581;DHT22;48640;48.770;9.148;2023-03-03T02:47:12;3.20;95.10
62581;DHT22;48640;48.770;9.148;2023-03-03T02:49:39;3.30;95.10
62581;DHT22;48640;48.770;9.148;2023-03-03T02:52:08;3.30;94.90
62581;DHT22;48640;48.770;9.148;2023-03-03T02:54:36;3.50;94.70
62581;DHT22;48640;48.770;9.148;2023-03-03T02:57:04;3.50;94.40
62581;DHT22;48640;48.770;9.148;2023-03-03T02:59:30;3.60;94.40
62581;DHT22;48640;48.770;9.148;2023-03-03T03:01:59;3.70;94.40
62581;DHT22;48640;48.770;9.148;2023-03-03T03:04:26;3.70;94.30
62581;DHT22;48640;48.770;9.148;2023-03-03T03:06:53;3.80;94.30
62581;DHT22;48640;48.770;9.148;2023-03-03T03:09:22;3.90;94.20
62581;DHT22;48640;48.770;9.148;2023-03-03T03:11:49;3.90;94.00
62581;DHT22;48640;48.770;9.148;2023-03-03T03:14:16;3.90;94.30
62581;DHT22;48640;48.770;9.148;2023-03-03T03:16:42;4.00;94.00
62581;DHT22;48640;48.770;9.148;2023-03-03T03:19:11;4.00;94.00
62581;DHT22;48640;48.770;9.148;2023-03-03T03:21:38;4.20;93.70
62581;DHT22;48640;48.770;9.148;2023-03-03T03:24:05;4.20;93.50
62581;DHT22;48640;48.770;9.148;2023-03-03T03:26:32;4.10;93.40
62581;DHT22;48640;48.770;9.148;2023-03-03T03:28:58;4.20;93.60
62581;DHT22;48640;48.770;9.148;2023-03-03T03:31:25;4.30;93.40
62581;DHT22;48640;48.770;9.148;2023-03-03T03:33:52;4.30;93.20
62581;DHT22;48640;48.770;9.148;2023-03-03T03:36:20;4.30;93.20
62581;DHT22;48640;48.770;9.148;2023-03-03T03:38:47;4.40;93.20
62581;DHT22;48640;48.770;9.148;2023-03-03T03:41:14;4.40;93.30
62581;DHT22;48640;48.770;9.148;2023-03-03T03:43:41;4.30;93.30
62581;DHT22;48640;48.770;9.148;2023-03-03T03:46:07;4.20;93.10
62581;DHT22;48640;48.770;9.148;2023-03-03T03:48:34;3.90;93.50
62581;DHT22;48640;48.770;9.148;2023-03-03T03:51:02;3.70;94.00
62581;DHT22;48640;48.770;9.148;2023-03-03T03:53:30;3.70;94.50
62581;DHT22;48640;48.770;9.148;2023-03-03T03:55:57;3.50;94.70
62581;DHT22;48640;48.770;9.148;2023-03-03T03:58:24;3.50;94.90
62581;DHT22;48640;48.770;9.148;2023-03-03T04:00:50;3.50;94.90
62581;DHT22;48640;48.770;9.148;2023-03-03T04:03:17;3.50;94.80
62581;DHT22;48640;48.770;9.148;2023-03-03T04:05:44;3.50;95.00
62581;DHT22;48640;48.770;9.148;2023-03-03T04:08:11;3.60;95.00
62581;DHT22;48640;48.770;9.148;2023-03-03T04:10:39;3.60;95.00
62581;DHT22;48640;48.770;9.148;2023-03-03T04:13:06;3.70;94.90
62581;DHT22;48640;48.770;9.148;2023-03-03T04:15:33;3.80;94.60
62581;DHT22;48640;48.770;9.148;2023-03-03T04:17:59;3.80;94.30
62581;DHT22;48640;48.770;9.148;2023-03-03T04:20:26;3.80;94.20
62581;DHT22;48640;48.770;9.148;2023-03-03T04:22:53;3.90;94.00
62581;DHT22;48640;48.770;9.148;2023-03-03T04:25:21;4.10;93.50
62581;DHT22;48640;48.770;9.148;2023-03-03T04:27:49;4.00;93.30
62581;DHT22;48640;48.770;9.148;2023-03-03T04:30:16;4.20;93.20
62581;DHT22;48640;48.770;9.148;2023-03-03T04:32:43;4.30;92.90
62581;DHT22;48640;48.770;9.148;2023-03-03T04:35:10;4.40;92.50
62581;DHT22;48640;48.770;9.148;2023-03-03T04:37:37;4.20;92.60
62581;DHT22;48640;48.770;9.148;2023-03-03T04:40:06;4.20;92.90
62581;DHT22;48640;48.770;9.148;2023-03-03T04:42:33;4.20;92.70
62581;DHT22;48640;48.770;9.148;2023-03-03T04:45:01;4.40;92.60
62581;DHT22;48640;48.770;9.148;2023-03-03T04:47:28;4.40;92.20
62581;DHT22;48640;48.770;9.148;2023-03-03T04:49:55;4.50;92.20
62581;DHT22;48640;48.770;9.148;2023-03-03T04:52:22;4.50;92.00
62581;DHT22;48640;48.770;9.148;2023-03-03T04:54:48;4.50;91.60
62581;DHT22;48640;48.770;9.148;2023-03-03T04:57:15;4.50;91.50
62581;DHT22;48640;48.770;9.148;2023-03-03T04:59:42;4.30;91.90
62581;DHT22;48640;48.770;9.148;2023-03-03T05:02:10;4.40;91.90
62581;DHT22;48640;48.770;9.148;2023-03-03T05:04:39;4.40;91.70
62581;DHT22;48640;48.770;9.148;2023-03-03T05:07:05;4.30;91.70
62581;DHT22;48640;48.770;9.148;2023-03-03T05:09:33;4.40;91.70
62581;DHT22;48640;48.770;9.148;2023-03-03T05:11:59;4.50;91.60
62581;DHT22;48640;48.770;9.148;2023-03-03T05:14:26;4.50;91.20
62581;DHT22;48640;48.770;9.148;2023-03-03T05:16:53;4.50;91.20
62581;DHT22;48640;48.770;9.148;2023-03-03T05:19:21;4.50;91.30
62581;DHT22;48640;48.770;9.148;2023-03-03T05:21:48;4.50;91.40
62581;DHT22;48640;48.770;9.148;2023-03-03T05:24:15;4.40;91.10
62581;DHT22;48640;48.770;9.148;2023-03-03T05:26:42;4.50;91.20
62581;DHT22;48640;48.770;9.148;2023-03-03T05:29:09;4.40;91.50
62581;DHT22;48640;48.770;9.148;2023-03-03T05:31:36;4.40;91.40
62581;DHT22;48640;48.770;9.148;2023-03-03T05:34:03;4.40;91.60
62581;DHT22;48640;48.770;9.148;2023-03-03T05:36:31;4.30;91.60
62581;DHT22;48640;48.770;9.148;2023-03-03T05:38:58;4.30;91.50
62581;DHT22;48640;48.770;9.148;2023-03-03T05:41:24;4.30;91.30
62581;DHT22;48640;48.770;9.148;2023-03-03T05:43:51;4.50;91.20
62581;DHT22;48640;48.770;9.148;2023-03-03T05:46:18;4.50;91.10
62581;DHT22;48640;48.770;9.148;2023-03-03T05:48:45;4.40;90.90
62581;DHT22;48640;48.770;9.148;2023-03-03T05:51:11;4.30;91.10
62581;DHT22;48640;48.770;9.148;2023-03-03T05:53:40;4.30;91.20
62581;DHT22;48640;48.770;9.148;2023-03-03T05:56:07;4.20;91.30
62581;DHT22;48640;48.770;9.148;2023-03-03T05:58:34;4.20;91.50
62581;DHT22;48640;48.770;9.148;2023-03-03T06:01:00;4.20;91.50
62581;DHT22;48640;48.770;9.148;2023-03-03T06:03:27;4.10;91.50
62581;DHT22;48640;48.770;9.148;2023-03-03T06:05:54;4.20;91.50
62581;DHT22;48640;48.770;9.148;2023-03-03T06:08:21;4.10;91.40
62581;DHT22;48640;48.770;9.148;2023-03-03T06:10:49;4.20;91.20
62581;DHT22;48640;48.770;9.148;2023-03-03T06:13:16;4.30;91.10
62581;DHT22;48640;48.770;9.148;2023-03-03T06:15:42;4.40;90.90
62581;DHT22;48640;48.770;9.148;2023-03-03T06:18:09;4.40;90.50
62581;DHT22;48640;48.770;9.148;2023-03-03T06:20:36;4.60;90.30
62581;DHT22;48640;48.770;9.148;2023-03-03T06:23:04;4.60;90.00
62581;DHT22;48640;48.770;9.148;2023-03-03T06:25:31;4.70;89.30
62581;DHT22;48640;48.770;9.148;2023-03-03T06:28:02;4.70;89.10
62581;DHT22;48640;48.770;9.148;2023-03-03T06:30:28;4.70;89.20
62581;DHT22;48640;48.770;9.148;2023-03-03T06:32:56;4.50;88.70
62581;DHT22;48640;48.770;9.148;2023-03-03T06:35:23;4.50;88.70
62581;DHT22;48640;48.770;9.148;2023-03-03T06:37:50;4.70;88.00
62581;DHT22;48640;48.770;9.148;2023-03-03T06:40:17;4.70;87.50
62581;DHT22;48640;48.770;9.148;2023-03-03T06:42:44;4.60;87.50
62581;DHT22;48640;48.770;9.148;2023-03-03T06:45:12;4.60;87.90
62581;DHT22;48640;48.770;9.148;2023-03-03T06:47:39;4.70;88.10
62581;DHT22;48640;48.770;9.148;2023-03-03T06:50:07;4.60;88.20
62581;DHT22;48640;48.770;9.148;2023-03-03T06:52:35;4.70;88.30
62581;DHT22;48640;48.770;9.148;2023-03-03T06:55:12;4.70;87.70
62581;DHT22;48640;48.770;9.148;2023-03-03T06:57:42;4.80;87.60
62581;DHT22;48640;48.770;9.148;2023-03-03T07:00:16;4.80;86.90
62581;DHT22;48640;48.770;9.148;2023-03-03T07:02:45;4.90;86.30
62581;DHT22;48640;48.770;9.148;2023-03-03T07:05:14;4.90;86.10
62581;DHT22;48640;48.770;9.148;2023-03-03T07:07:42;4.70;85.50
62581;DHT22;48640;48.770;9.148;2023-03-03T07:10:17;4.80;85.30
62581;DHT22;48640;48.770;9.148;2023-03-03T07:12:45;4.90;85.50
62581;DHT22;48640;48.770;9.148;2023-03-03T07:15:17;5.00;85.30
62581;DHT22;48640;48.770;9.148;2023-03-03T07:17:48;5.00;84.30
62581;DHT22;48640;48.770;9.148;2023-03-03T07:20:20;5.10;84.10
62581;DHT22;48640;48.770;9.148;2023-03-03T07:22:47;5.10;84.20
62581;DHT22;48640;48.770;9.148;2023-03-03T07:25:25;4.90;83.70
62581;DHT22;48640;48.770;9.148;2023-03-03T07:27:57;4.90;83.90
62581;DHT22;48640;48.770;9.148;2023-03-03T07:30:26;4.90;83.80
62581;DHT22;48640;48.770;9.148;2023-03-03T07:32:57;5.00;83.80
62581;DHT22;48640;48.770;9.148;2023-03-03T07:35:38;5.00;84.10
62581;DHT22;48640;48.770;9.148;2023-03-03T07:38:29;5.10;83.40
62581;DHT22;48640;48.770;9.148;2023-03-03T07:40:57;5.20;83.20
62581;DHT22;48640;48.770;9.148;2023-03-03T07:43:35;5.10;83.10
62581;DHT22;48640;48.770;9.148;2023-03-03T07:46:24;5.10;83.30
62581;DHT22;48640;48.770;9.148;2023-03-03T07:48:52;5.20;83.10
62581;DHT22;48640;48.770;9.148;2023-03-03T07:51:21;5.30;82.70
62581;DHT22;48640;48.770;9.148;2023-03-03T07:53:50;5.20;82.50
62581;DHT22;48640;48.770;9.148;2023-03-03T07:56:29;5.40;82.40
62581;DHT22;48640;48.770;9.148;2023-03-03T07:58:57;5.60;81.80
62581;DHT22;48640;48.770;9.148;2023-03-03T08:01:43;5.60;81.40
62581;DHT22;48640;48.770;9.148;2023-03-03T08:04:19;5.90;81.00
62581;DHT22;48640;48.770;9.148;2023-03-03T08:06:53;6.00;80.50
62581;DHT22;48640;48.770;9.148;2023-03-03T08:12:26;6.20;79.30
62581;DHT22;48640;48.770;9.148;2023-03-03T08:14:56;6.50;78.40
62581;DHT22;48640;48.770;9.148;2023-03-03T08:17:31;6.50;77.30
62581;DHT22;48640;48.770;9.148;2023-03-03T08:20:01;6.80;76.80
62581;DHT22;48640;48.770;9.148;2023-03-03T08:22:34;6.90;75.80
62581;DHT22;48640;48.770;9.148;2023-03-03T08:25:01;6.80;75.20
62581;DHT22;48640;48.770;9.148;2023-03-03T08:27:28;7.10;76.30
62581;DHT22;48640;48.770;9.148;2023-03-03T08:29:55;7.30;74.10
62581;DHT22;48640;48.770;9.148;2023-03-03T08:32:22;7.60;73.40
62581;DHT22;48640;48.770;9.148;2023-03-03T08:34:50;7.70;73.00
62581;DHT22;48640;48.770;9.148;2023-03-03T08:37:17;7.40;72.20
62581;DHT22;48640;48.770;9.148;2023-03-03T08:39:44;7.10;72.30
62581;DHT22;48640;48.770;9.148;2023-03-03T08:42:10;6.80;73.30
62581;DHT22;48640;48.770;9.148;2023-03-03T08:44:37;6.70;74.10
62581;DHT22;48640;48.770;9.148;2023-03-03T08:47:04;6.50;73.30
62581;DHT22;48640;48.770;9.148;2023-03-03T08:49:31;6.30;74.20
62581;DHT22;48640;48.770;9.148;2023-03-03T08:51:59;5.90;75.50
62581;DHT22;48640;48.770;9.148;2023-03-03T08:54:26;5.80;76.40
62581;DHT22;48640;48.770;9.148;2023-03-03T08:56:53;5.80;76.60
62581;DHT22;48640;48.770;9.148;2023-03-03T08:59:20;5.80;76.50
62581;DHT22;48640;48.770;9.148;2023-03-03T09:01:47;6.00;76.30
62581;DHT22;48640;48.770;9.148;2023-03-03T09:04:13;6.10;75.80
62581;DHT22;48640;48.770;9.148;2023-03-03T09:06:40;6.00;75.20
62581;DHT22;48640;48.770;9.148;2023-03-03T09:09:08;6.30;74.20
62581;DHT22;48640;48.770;9.148;2023-03-03T09:11:35;6.40;73.80
62581;DHT22;48640;48.770;9.148;2023-03-03T09:14:06;6.20;74.10
62581;DHT22;48640;48.770;9.148;2023-03-03T09:16:39;6.00;73.90
62581;DHT22;48640;48.770;9.148;2023-03-03T09:19:22;5.50;75.60
62581;DHT22;48640;48.770;9.148;2023-03-03T09:21:50;5.80;77.10
62581;DHT22;48640;48.770;9.148;2023-03-03T09:24:24;6.40;76.00
62581;DHT22;48640;48.770;9.148;2023-03-03T09:26:52;6.90;74.00
62581;DHT22;48640;48.770;9.148;2023-03-03T09:29:24;7.60;70.30
62581;DHT22;48640;48.770;9.148;2023-03-03T09:31:54;8.20;69.20
62581;DHT22;48640;48.770;9.148;2023-03-03T09:34:23;8.30;66.80
62581;DHT22;48640;48.770;9.148;2023-03-03T09:36:52;8.30;66.00
62581;DHT22;48640;48.770;9.148;2023-03-03T09:39:22;8.70;66.00
62581;DHT22;48640;48.770;9.148;2023-03-03T09:42:12;8.60;64.40
62581;DHT22;48640;48.770;9.148;2023-03-03T09:48:16;8.30;65.60
62581;DHT22;48640;48.770;9.148;2023-03-03T09:50:56;8.20;65.10
62581;DHT22;48640;48.770;9.148;2023-03-03T09:53:36;7.90;66.60
62581;DHT22;48640;48.770;9.148;2023-03-03T09:56:12;8.10;68.10
62581;DHT22;48640;48.770;9.148;2023-03-03T09:58:52;8.90;66.20
62581;DHT22;48640;48.770;9.148;2023-03-03T10:01:49;9.20;64.20
62581;DHT22;48640;48.770;9.148;2023-03-03T10:04:47;9.30;64.80
62581;DHT22;48640;48.770;9.148;2023-03-03T10:07:26;9.60;63.80
62581;DHT22;48640;48.770;9.148;2023-03-03T10:10:10;8.60;62.80
62581;DHT22;48640;48.770;9.148;2023-03-03T10:12:49;8.40;65.30
62581;DHT22;48640;48.770;9.148;2023-03-03T10:15:36;9.10;64.50
62581;DHT22;48640;48.770;9.148;2023-03-03T10:18:14;9.80;62.90
62581;DHT22;48640;48.770;9.148;2023-03-03T10:20:56;10.30;60.70
62581;DHT22;48640;48.770;9.148;2023-03-03T10:23:40;10.80;59.30
62581;DHT22;48640;48.770;9.148;2023-03-03T10:26:18;10.90;57.70
62581;DHT22;48640;48.770;9.148;2023-03-03T10:29:02;9.60;59.40
62581;DHT22;48640;48.770;9.148;2023-03-03T10:31:42;9.90;60.40
62581;DHT22;48640;48.770;9.148;2023-03-03T10:34:27;8.90;62.20
62581;DHT22;48640;48.770;9.148;2023-03-03T10:36:59;9.10;63.80
62581;DHT22;48640;48.770;9.148;2023-03-03T10:42:44;10.70;60.00
62581;DHT22;48640;48.770;9.148;2023-03-03T10:45:40;11.10;57.80
62581;DHT22;48640;48.770;9.148;2023-03-03T10:48:26;11.40;55.90
62581;DHT22;48640;48.770;9.148;2023-03-03T10:51:02;11.40;56.20
62581;DHT22;48640;48.770;9.148;2023-03-03T10:53:36;12.20;55.20
62581;DHT22;48640;48.770;9.148;2023-03-03T10:56:19;12.70;53.80
62581;DHT22;48640;48.770;9.148;2023-03-03T10:59:03;13.20;52.50
62581;DHT22;48640;48.770;9.148;2023-03-03T11:01:44;12.70;51.60
62581;DHT22;48640;48.770;9.148;2023-03-03T11:04:31;13.10;51.70
62581;DHT22;48640;48.770;9.148;2023-03-03T11:07:08;11.60;52.00
62581;DHT22;48640;48.770;9.148;2023-03-03T11:09:50;9.70;56.60
62581;DHT22;48640;48.770;9.148;2023-03-03T11:12:27;9.20;59.20
62581;DHT22;48640;48.770;9.148;2023-03-03T11:15:03;9.70;59.90
62581;DHT22;48640;48.770;9.148;2023-03-03T11:17:47;9.60;59.20
62581;DHT22;48640;48.770;9.148;2023-03-03T11:20:27;9.70;59.00
62581;DHT22;48640;48.770;9.148;2023-03-03T11:23:06;10.00;58.10
62581;DHT22;48640;48.770;9.148;2023-03-03T11:25:37;9.80;58.60
62581;DHT22;48640;48.770;9.148;2023-03-03T11:28:20;10.00;59.30
62581;DHT22;48640;48.770;9.148;2023-03-03T11:31:01;10.00;58.80
62581;DHT22;48640;48.770;9.148;2023-03-03T11:33:37;10.10;58.90
62581;DHT22;48640;48.770;9.148;2023-03-03T11:36:11;10.00;59.10
62581;DHT22;48640;48.770;9.148;2023-03-03T11:38:48;10.10;59.10
62581;DHT22;48640;48.770;9.148;2023-03-03T11:41:26;9.20;60.10
62581;DHT22;48640;48.770;9.148;2023-03-03T11:43:58;9.10;61.90
62581;DHT22;48640;48.770;9.148;2023-03-03T11:46:33;9.30;62.20
62581;DHT22;48640;48.770;9.148;2023-03-03T11:49:05;9.30;61.90
62581;DHT22;48640;48.770;9.148;2023-03-03T11:51:43;9.30;61.90
62581;DHT22;48640;48.770;9.148;2023-03-03T11:54:19;9.70;62.40
62581;DHT22;48640;48.770;9.148;2023-03-03T11:56:47;10.10;59.10
62581;DHT22;48640;48.770;9.148;2023-03-03T12:02:40;10.70;58.00
62581;DHT22;48640;48.770;9.148;2023-03-03T12:05:12;10.20;57.70
62581;DHT22;48640;48.770;9.148;2023-03-03T12:07:46;9.70;59.70
62581;DHT22;48640;48.770;9.148;2023-03-03T12:10:23;9.80;59.50
62581;DHT22;48640;48.770;9.148;2023-03-03T12:13:00;10.00;58.90
62581;DHT22;48640;48.770;9.148;2023-03-03T12:15:34;10.40;58.30
62581;DHT22;48640;48.770;9.148;2023-03-03T12:18:25;10.50;57.40
62581;DHT22;48640;48.770;9.148;2023-03-03T12:21:09;10.50;56.20
62581;DHT22;48640;48.770;9.148;2023-03-03T12:23:59;10.60;57.10
62581;DHT22;48640;48.770;9.148;2023-03-03T12:26:33;11.00;56.70
62581;DHT22;48640;48.770;9.148;2023-03-03T12:29:06;10.00;55.60
62581;DHT22;48640;48.770;9.148;2023-03-03T12:31:45;9.50;58.20
62581;DHT22;48640;48.770;9.148;2023-03-03T12:34:19;10.00;58.60
62581;DHT22;48640;48.770;9.148;2023-03-03T12:37:14;10.60;57.00
62581;DHT22;48640;48.770;9.148;2023-03-03T12:39:54;11.40;55.70
62581;DHT22;48640;48.770;9.148;2023-03-03T12:42:33;12.10;52.80
62581;DHT22;48640;48.770;9.148;2023-03-03T12:45:13;10.70;53.50
62581;DHT22;48640;48.770;9.148;2023-03-03T12:47:48;9.80;56.30
62581;DHT22;48640;48.770;9.148;2023-03-03T12:50:26;9.70;58.20
62581;DHT22;48640;48.770;9.148;2023-03-03T12:52:59;10.30;57.00
62581;DHT22;48640;48.770;9.148;2023-03-03T12:55:40;10.80;56.60
62581;DHT22;48640;48.770;9.148;2023-03-03T12:58:14;11.20;54.90
62581;DHT22;48640;48.770;9.148;2023-03-03T13:00:51;11.70;54.90
62581;DHT22;48640;48.770;9.148;2023-03-03T13:03:31;11.40;54.60
62581;DHT22;48640;48.770;9.148;2023-03-03T13:06:05;11.40;54.90
62581;DHT22;48640;48.770;9.148;2023-03-03T13:08:51;11.10;54.30
62581;DHT22;48640;48.770;9.148;2023-03-03T13:11:35;11.20;54.80
62581;DHT22;48640;48.770;9.148;2023-03-03T13:14:15;11.50;54.20
62581;DHT22;48640;48.770;9.148;2023-03-03T13:16:46;11.20;53.90
62581;DHT22;48640;48.770;9.148;2023-03-03T13:19:18;11.00;54.50
62581;DHT22;48640;48.770;9.148;2023-03-03T13:21:49;10.40;55.30
62581;DHT22;48640;48.770;9.148;2023-03-03T13:24:24;10.90;56.30
62581;DHT22;48640;48.770;9.148;2023-03-03T13:26:55;11.20;55.10
62581;DHT22;48640;48.770;9.148;2023-03-03T13:29:26;11.20;54.60
62581;DHT22;48640;48.770;9.148;2023-03-03T13:31:58;10.70;54.00
62581;DHT22;48640;48.770;9.148;2023-03-03T13:34:36;10.50;56.70
62581;DHT22;48640;48.770;9.148;2023-03-03T13:37:07;10.70;55.60
62581;DHT22;48640;48.770;9.148;2023-03-03T13:39:42;10.90;55.70
62581;DHT22;48640;48.770;9.148;2023-03-03T13:42:20;11.10;55.50
62581;DHT22;48640;48.770;9.148;2023-03-03T13:44:50;11.30;54.70
62581;DHT22;48640;48.770;9.148;2023-03-03T13:47:22;11.50;54.20
62581;DHT22;48640;48.770;9.148;2023-03-03T13:50:02;11.10;53.80
62581;DHT22;48640;48.770;9.148;2023-03-03T13:52:32;11.10;54.70
62581;DHT22;48640;48.770;9.148;2023-03-03T13:55:11;11.30;54.70
62581;DHT22;48640;48.770;9.148;2023-03-03T13:57:54;11.30;54.70
62581;DHT22;48640;48.770;9.148;2023-03-03T14:00:31;10.70;54.00
62581;DHT22;48640;48.770;9.148;2023-03-03T14:03:16;10.40;55.20
62581;DHT22;48640;48.770;9.148;2023-03-03T14:05:48;10.40;55.70
62581;DHT22;48640;48.770;9.148;2023-03-03T14:08:25;10.30;56.00
62581;DHT22;48640;48.770;9.148;2023-03-03T14:11:06;10.40;56.50
62581;DHT22;48640;48.770;9.148;2023-03-03T14:13:41;10.70;55.80
62581;DHT22;48640;48.770;9.148;2023-03-03T14:16:16;10.60;55.40
62581;DHT22;48640;48.770;9.148;2023-03-03T14:18:53;10.20;55.50
62581;DHT22;48640;48.770;9.148;2023-03-03T14:21:27;10.20;56.30
62581;DHT22;48640;48.770;9.148;2023-03-03T14:23:58;10.40;57.30
62581;DHT22;48640;48.770;9.148;2023-03-03T14:26:30;10.70;55.90
62581;DHT22;48640;48.770;9.148;2023-03-03T14:29:14;10.80;55.80
62581;DHT22;48640;48.770;9.148;2023-03-03T14:31:44;10.50;55.70
62581;DHT22;48640;48.770;9.148;2023-03-03T14:37:21;10.50;55.60
62581;DHT22;48640;48.770;9.148;2023-03-03T14:39:50;10.60;55.90
62581;DHT22;48640;48.770;9.148;2023-03-03T14:42:33;10.50;55.90
62581;DHT22;48640;48.770;9.148;2023-03-03T14:45:04;10.40;56.10
62581;DHT22;48640;48.770;9.148;2023-03-03T14:47:44;10.50;56.40
62581;DHT22;48640;48.770;9.148;2023-03-03T14:50:32;10.30;56.40
62581;DHT22;48640;48.770;9.148;2023-03-03T14:53:10;10.20;57.50
62581;DHT22;48640;48.770;9.148;2023-03-03T14:55:39;10.30;56.70
62581;DHT22;48640;48.770;9.148;2023-03-03T14:58:26;10.20;56.80
62581;DHT22;48640;48.770;9.148;2023-03-03T15:01:15;10.30;56.60
62581;DHT22;48640;48.770;9.148;2023-03-03T15:03:48;10.10;56.70
62581;DHT22;48640;48.770;9.148;2023-03-03T15:06:29;10.10;57.10
62581;DHT22;48640;48.770;9.148;2023-03-03T15:09:30;10.10;57.10
62581;DHT22;48640;48.770;9.148;2023-03-03T15:12:00;10.10;57.30
62581;DHT22;48640;48.770;9.148;2023-03-03T15:14:31;10.10;57.30
62581;DHT22;48640;48.770;9.148;2023-03-03T15:17:25;10.10;57.30
62581;DHT22;48640;48.770;9.148;2023-03-03T15:20:21;10.00;57.60
62581;DHT22;48640;48.770;9.148;2023-03-03T15:22:50;9.90;58.30
62581;DHT22;48640;48.770;9.148;2023-03-03T15:25:27;9.90;58.20
62581;DHT22;48640;48.770;9.148;2023-03-03T15:28:11;9.90;58.50
62581;DHT22;48640;48.770;9.148;2023-03-03T15:30:46;10.00;57.70
62581;DHT22;48640;48.770;9.148;2023-03-03T15:33:23;9.90;58.80
62581;DHT22;48640;48.770;9.148;2023-03-03T15:35:57;9.60;58.90
62581;DHT22;48640;48.770;9.148;2023-03-03T15:38:36;9.50;59.70
62581;DHT22;48640;48.770;9.148;2023-03-03T15:41:16;9.40;60.00
62581;DHT22;48640;48.770;9.148;2023-03-03T15:43:51;9.30;60.00
62581;DHT22;48640;48.770;9.148;2023-03-03T15:46:30;9.30;60.40
62581;DHT22;48640;48.770;9.148;2023-03-03T15:49:09;9.50;60.00
62581;DHT22;48640;48.770;9.148;2023-03-03T15:51:48;9.40;60.10
62581;DHT22;48640;48.770;9.148;2023-03-03T15:54:28;9.40;60.20
62581;DHT22;48640;48.770;9.148;2023-03-03T15:57:00;9.50;59.90
62581;DHT22;48640;48.770;9.148;2023-03-03T15:59:46;9.40;60.00
62581;DHT22;48640;48.770;9.148;2023-03-03T16:02:23;9.20;60.70
62581;DHT22;48640;48.770;9.148;2023-03-03T16:04:52;9.20;61.10
62581;DHT22;48640;48.770;9.148;2023-03-03T16:07:29;9.20;62.30
62581;DHT22;48640;48.770;9.148;2023-03-03T16:10:09;9.20;61.50
62581;DHT22;48640;48.770;9.148;2023-03-03T16:12:45;9.10;61.20
62581;DHT22;48640;48.770;9.148;2023-03-03T16:15:24;9.20;61.80
62581;DHT22;48640;48.770;9.148;2023-03-03T16:17:59;9.20;61.80
62581;DHT22;48640;48.770;9.148;2023-03-03T16:20:32;9.30;60.90
62581;DHT22;48640;48.770;9.148;2023-03-03T16:23:15;9.30;61.50
62581;DHT22;48640;48.770;9.148;2023-03-03T16:25:57;9.20;61.90
62581;DHT22;48640;48.770;9.148;2023-03-03T16:28:34;9.20;62.10
62581;DHT22;48640;48.770;9.148;2023-03-03T16:31:06;9.10;61.80
62581;DHT22;48640;48.770;9.148;2023-03-03T16:33:43;9.10;62.20